Time;durP1;ratioP1;P1;durP2;ratioP2;P2;SDS_P1;SDS_P2;PMS_P1;PMS_P2;Temp;Humidity;BMP_temperature;BMP_pressure;BME280_temperature;BME280_humidity;BME280_pressure;Samples;Min_cycle;Max_cycle;Signal;HPM_P1;HPM_P2
2022/03/12 00:02:24;;;;;;;12.65;6.00;;;8.10;46.10;;;;;;5050544;28;20044;-80
2022/03/12 00:04:49;;;;;;;11.55;5.50;;;8.10;45.90;;;;;;5050408;28;20044;-80
2022/03/12 00:07:16;;;;;;;11.98;6.07;;;8.10;46.00;;;;;;5033998;28;20052;-80
2022/03/12 00:09:43;;;;;;;10.65;6.05;;;8.10;46.10;;;;;;5050638;28;20045;-80
2022/03/12 00:12:13;;;;;;;11.65;5.70;;;8.10;46.10;;;;;;5033558;28;20049;-80
2022/03/12 00:14:39;;;;;;;10.18;6.15;;;8.10;46.00;;;;;;5050508;28;20167;-80
2022/03/12 00:17:06;;;;;;;12.90;6.05;;;8.10;46.40;;;;;;5033859;28;20119;-80
2022/03/12 00:19:32;;;;;;;12.18;6.03;;;8.10;46.00;;;;;;5050978;28;20045;-79
2022/03/12 00:21:58;;;;;;;11.55;5.68;;;8.10;46.20;;;;;;5033663;28;20047;-80
2022/03/12 00:24:28;;;;;;;12.25;5.85;;;8.00;46.20;;;;;;5050397;28;20087;-80
2022/03/12 00:26:53;;;;;;;10.23;6.00;;;8.10;46.30;;;;;;5049364;28;20041;-80
2022/03/12 00:29:20;;;;;;;11.23;6.35;;;8.00;46.30;;;;;;5032510;28;20037;-80
2022/03/12 00:31:48;;;;;;;12.27;6.22;;;8.00;46.70;;;;;;5048766;28;20540;-79
2022/03/12 00:34:14;;;;;;;12.05;6.25;;;8.00;46.70;;;;;;5048922;28;20068;-80
2022/03/12 00:36:41;;;;;;;14.32;6.38;;;8.00;46.90;;;;;;5049284;28;20454;-80
2022/03/12 00:39:10;;;;;;;13.35;6.05;;;8.00;46.80;;;;;;5049714;28;20060;-80
2022/03/12 00:41:38;;;;;;;11.38;5.68;;;8.00;46.80;;;;;;5033275;28;20048;-80
2022/03/12 00:44:04;;;;;;;10.70;5.70;;;8.00;46.90;;;;;;5032898;28;20051;-80
2022/03/12 00:46:30;;;;;;;13.55;5.93;;;7.90;46.90;;;;;;5049212;28;20402;-80
2022/03/12 00:48:56;;;;;;;13.05;6.20;;;7.90;47.20;;;;;;5033346;28;20044;-80
2022/03/12 00:51:21;;;;;;;13.02;6.47;;;7.90;47.20;;;;;;5049740;28;20071;-80
2022/03/12 00:53:47;;;;;;;11.63;6.07;;;7.90;47.10;;;;;;5052020;28;20038;-80
2022/03/12 00:56:12;;;;;;;10.63;6.07;;;7.90;47.20;;;;;;5070172;28;20032;-80
2022/03/12 00:58:38;;;;;;;12.18;6.00;;;7.90;47.10;;;;;;5070114;28;20124;-80
2022/03/12 01:01:05;;;;;;;11.18;6.22;;;7.90;47.30;;;;;;5069996;28;20028;-80
2022/03/12 01:03:31;;;;;;;11.52;6.28;;;7.90;47.30;;;;;;5053211;28;20178;-80
2022/03/12 01:06:02;;;;;;;12.90;6.45;;;7.90;47.20;;;;;;5069957;28;20048;-80
2022/03/12 01:08:29;;;;;;;10.63;5.80;;;7.90;47.00;;;;;;5070084;28;20119;-80
2022/03/12 01:10:58;;;;;;;14.52;6.43;;;7.90;47.20;;;;;;5069972;28;20138;-80
2022/03/12 01:13:24;;;;;;;12.40;5.68;;;7.90;47.30;;;;;;5069629;28;20040;-80
2022/03/12 01:15:50;;;;;;;13.30;5.95;;;7.90;47.00;;;;;;5070319;28;20401;-80
2022/03/12 01:18:22;;;;;;;11.75;6.10;;;7.90;47.00;;;;;;5071765;28;20028;-79
2022/03/12 01:20:49;;;;;;;11.70;5.75;;;7.90;47.10;;;;;;5073545;28;20115;-80
2022/03/12 01:23:17;;;;;;;9.98;5.85;;;7.90;47.00;;;;;;5073951;28;20509;-80
2022/03/12 01:25:45;;;;;;;9.93;5.95;;;7.90;47.00;;;;;;5073927;28;20071;-80
2022/03/12 01:28:13;;;;;;;12.60;6.18;;;7.90;46.90;;;;;;5074004;28;20115;-80
2022/03/12 01:30:41;;;;;;;11.55;6.15;;;7.90;46.90;;;;;;5057039;28;20036;-80
2022/03/12 01:33:07;;;;;;;11.05;6.00;;;7.90;46.90;;;;;;5073383;28;20494;-80
2022/03/12 01:35:33;;;;;;;10.85;6.38;;;7.90;46.80;;;;;;5057015;28;20040;-80
2022/03/12 01:38:01;;;;;;;12.63;6.07;;;7.90;47.00;;;;;;5073697;28;20033;-79
2022/03/12 01:40:28;;;;;;;10.88;6.07;;;7.90;47.00;;;;;;5073347;28;20489;-80
2022/03/12 01:42:53;;;;;;;11.25;5.95;;;7.90;46.90;;;;;;5056806;28;20044;-80
2022/03/12 01:45:26;;;;;;;11.68;6.03;;;7.90;47.10;;;;;;5073558;28;20040;-79
2022/03/12 01:47:56;;;;;;;13.30;5.97;;;7.90;47.00;;;;;;5073657;28;20041;-80
2022/03/12 01:50:31;;;;;;;10.90;6.15;;;7.90;47.20;;;;;;5056870;28;20044;-80
2022/03/12 01:53:03;;;;;;;11.27;5.53;;;7.90;47.20;;;;;;5065337;28;20041;-80
2022/03/12 01:55:30;;;;;;;12.52;5.82;;;7.90;47.00;;;;;;5069958;28;20028;-80
2022/03/12 01:58:02;;;;;;;12.15;6.05;;;7.90;47.10;;;;;;5056699;28;20036;-80
2022/03/12 02:00:37;;;;;;;12.93;5.57;;;7.90;47.30;;;;;;5056605;28;20036;-80
2022/03/12 02:03:03;;;;;;;11.73;6.13;;;7.90;47.20;;;;;;5072704;28;20043;-80
2022/03/12 02:05:29;;;;;;;14.07;6.03;;;7.80;47.20;;;;;;5056366;28;20115;-80
2022/03/12 02:08:01;;;;;;;11.48;5.78;;;7.80;47.10;;;;;;5072761;28;20119;-79
2022/03/12 02:10:27;;;;;;;12.27;6.20;;;7.80;47.40;;;;;;5056281;28;20072;-80
2022/03/12 02:12:53;;;;;;;11.68;6.20;;;7.80;47.30;;;;;;5072322;28;20087;-79
2022/03/12 02:15:22;;;;;;;11.82;6.43;;;7.80;47.30;;;;;;5056351;28;20040;-80
2022/03/12 02:17:52;;;;;;;12.52;6.55;;;7.80;47.60;;;;;;5072933;28;20097;-80
2022/03/12 02:20:20;;;;;;;11.93;6.47;;;7.80;47.50;;;;;;5073140;28;20393;-80
2022/03/12 02:22:52;;;;;;;11.18;6.13;;;7.80;47.60;;;;;;5072495;28;20453;-80
2022/03/12 02:25:23;;;;;;;11.02;6.28;;;7.80;47.30;;;;;;5072515;28;20119;-80
2022/03/12 02:27:49;;;;;;;9.80;5.45;;;7.80;47.40;;;;;;5072895;28;20501;-80
2022/03/12 02:30:14;;;;;;;11.40;6.07;;;7.80;47.40;;;;;;5072695;28;20078;-80
2022/03/12 02:32:40;;;;;;;13.27;6.72;;;7.80;47.50;;;;;;5072450;28;20131;-80
2022/03/12 02:35:11;;;;;;;11.80;5.70;;;7.70;47.50;;;;;;5072714;28;20041;-80
2022/03/12 02:37:41;;;;;;;14.02;6.25;;;7.70;47.70;;;;;;5072589;28;20044;-80
2022/03/12 02:40:09;;;;;;;11.02;5.82;;;7.70;47.70;;;;;;5072233;28;20075;-80
2022/03/12 02:42:39;;;;;;;12.23;6.25;;;7.70;47.40;;;;;;5072113;28;20040;-80
2022/03/12 02:45:07;;;;;;;12.48;6.50;;;7.70;47.40;;;;;;5072562;28;20516;-79
2022/03/12 02:47:34;;;;;;;10.85;6.20;;;7.70;47.70;;;;;;5072266;28;20044;-79
2022/03/12 02:50:06;;;;;;;12.40;6.35;;;7.70;47.80;;;;;;5055779;28;20040;-79
2022/03/12 02:52:37;;;;;;;11.80;6.13;;;7.70;47.80;;;;;;5055115;28;20406;-80
2022/03/12 02:55:02;;;;;;;12.20;6.28;;;7.70;47.80;;;;;;5040076;28;20039;-80
2022/03/12 02:57:29;;;;;;;11.23;6.00;;;7.70;48.00;;;;;;5035647;28;20405;-80
2022/03/12 02:59:59;;;;;;;11.65;7.20;;;7.70;48.10;;;;;;5035660;28;20036;-80
2022/03/12 03:02:31;;;;;;;11.95;6.38;;;7.70;47.90;;;;;;5051696;28;20501;-80
2022/03/12 03:04:57;;;;;;;11.38;6.20;;;7.60;47.90;;;;;;5052158;28;20452;-79
2022/03/12 03:07:24;;;;;;;11.38;6.40;;;7.60;48.00;;;;;;5052261;28;20525;-79
2022/03/12 03:09:50;;;;;;;12.57;6.53;;;7.60;48.00;;;;;;5052046;28;20098;-80
2022/03/12 03:12:18;;;;;;;12.45;6.55;;;7.60;48.00;;;;;;5051741;28;20037;-80
2022/03/12 03:14:48;;;;;;;11.77;6.00;;;7.60;48.10;;;;;;5051761;28;20077;-80
2022/03/12 03:17:15;;;;;;;11.75;6.45;;;7.60;48.00;;;;;;5051999;28;20037;-80
2022/03/12 03:19:41;;;;;;;11.18;6.25;;;7.60;48.30;;;;;;5052046;28;20123;-80
2022/03/12 03:22:08;;;;;;;10.50;6.43;;;7.60;48.20;;;;;;5051479;28;20037;-80
2022/03/12 03:24:34;;;;;;;12.80;6.50;;;7.60;49.10;;;;;;5052053;28;20052;-80
2022/03/12 03:27:01;;;;;;;10.55;5.47;;;7.60;48.30;;;;;;5034869;28;20072;-80
2022/03/12 03:29:30;;;;;;;11.73;6.07;;;7.50;48.30;;;;;;5052118;28;20132;-80
2022/03/12 03:31:56;;;;;;;11.70;6.72;;;7.50;48.10;;;;;;5051175;28;20494;-79
2022/03/12 03:34:23;;;;;;;12.65;6.65;;;7.50;48.00;;;;;;5051423;28;20041;-79
2022/03/12 03:36:49;;;;;;;12.48;6.22;;;7.50;48.20;;;;;;5035247;28;20059;-80
2022/03/12 03:39:15;;;;;;;12.35;6.68;;;7.50;48.20;;;;;;5034956;28;20033;-78
2022/03/12 03:41:42;;;;;;;13.80;6.65;;;7.50;48.10;;;;;;5045724;28;20090;-79
2022/03/12 03:44:08;;;;;;;11.07;6.30;;;7.50;48.10;;;;;;5051588;28;20052;-79
2022/03/12 03:46:34;;;;;;;13.13;6.72;;;7.50;48.10;;;;;;5051055;28;20418;-78
2022/03/12 03:49:00;;;;;;;11.45;6.10;;;7.50;48.20;;;;;;5051210;28;20083;-79
2022/03/12 03:51:26;;;;;;;10.90;5.78;;;7.50;48.80;;;;;;5050878;28;20045;-79
2022/03/12 03:53:52;;;;;;;14.00;7.05;;;7.50;48.10;;;;;;5050880;28;20052;-78
2022/03/12 03:56:18;;;;;;;12.40;6.72;;;7.50;47.90;;;;;;5051191;28;20418;-80
2022/03/12 03:58:44;;;;;;;9.80;5.75;;;7.50;47.60;;;;;;5051077;28;20609;-80
2022/03/12 04:01:22;;;;;;;11.48;5.80;;;7.50;47.60;;;;;;5050722;28;20045;-79
2022/03/12 04:03:48;;;;;;;13.73;6.50;;;7.50;47.60;;;;;;5050737;28;20041;-80
2022/03/12 04:06:20;;;;;;;11.55;6.25;;;7.50;47.80;;;;;;5050615;28;20041;-80
2022/03/12 04:08:46;;;;;;;17.35;6.28;;;7.50;48.00;;;;;;5050535;28;20037;-80
2022/03/12 04:11:23;;;;;;;12.15;6.32;;;7.50;47.90;;;;;;5050864;28;20033;-80
2022/03/12 04:13:52;;;;;;;10.82;5.75;;;7.50;48.10;;;;;;5033697;28;20045;-80
2022/03/12 04:16:19;;;;;;;12.13;6.00;;;7.50;47.80;;;;;;5050807;28;20040;-80
2022/03/12 04:18:46;;;;;;;10.82;6.00;;;7.40;47.60;;;;;;5050593;28;20037;-80
2022/03/12 04:21:16;;;;;;;13.02;5.68;;;7.40;47.60;;;;;;5050658;28;20078;-80
2022/03/12 04:23:43;;;;;;;11.70;6.15;;;7.40;47.70;;;;;;5033981;28;20048;-80
2022/03/12 04:26:13;;;;;;;12.40;6.65;;;7.40;47.70;;;;;;5050237;28;20124;-80
2022/03/12 04:28:40;;;;;;;11.93;6.40;;;7.40;47.90;;;;;;5034104;28;20088;-80
2022/03/12 04:31:07;;;;;;;10.82;6.40;;;7.40;47.90;;;;;;5050114;28;20076;-79
2022/03/12 04:33:34;;;;;;;10.95;6.10;;;7.40;48.10;;;;;;5033638;28;20048;-80
2022/03/12 04:36:01;;;;;;;12.70;6.28;;;7.40;48.10;;;;;;5050012;28;20115;-80
2022/03/12 04:38:27;;;;;;;11.63;6.45;;;7.40;48.20;;;;;;5049961;28;20044;-80
2022/03/12 04:40:55;;;;;;;11.20;6.10;;;7.40;48.30;;;;;;5049425;28;20116;-79
2022/03/12 04:43:22;;;;;;;15.13;6.65;;;7.40;48.10;;;;;;5049945;28;20045;-80
2022/03/12 04:45:49;;;;;;;13.30;6.55;;;7.40;48.10;;;;;;5049942;28;20514;-80
2022/03/12 04:48:18;;;;;;;11.55;5.95;;;7.30;47.90;;;;;;5050261;28;20076;-80
2022/03/12 04:50:44;;;;;;;11.50;6.10;;;7.30;47.70;;;;;;5049696;28;20044;-79
2022/03/12 04:53:11;;;;;;;12.77;5.97;;;7.30;48.00;;;;;;5048635;28;20045;-79
2022/03/12 04:55:37;;;;;;;11.07;6.13;;;7.30;48.10;;;;;;5067765;28;20044;-80
2022/03/12 04:58:08;;;;;;;12.57;5.82;;;7.30;48.20;;;;;;5053389;28;20086;-80
2022/03/12 05:00:38;;;;;;;15.68;6.45;;;7.20;48.30;;;;;;5070060;28;20044;-80
2022/03/12 05:03:14;;;;;;;15.23;6.35;;;7.20;48.20;;;;;;5069630;28;20052;-80
2022/03/12 05:05:43;;;;;;;12.45;6.25;;;7.20;48.30;;;;;;5054015;28;20037;-80
2022/03/12 05:08:15;;;;;;;11.43;6.10;;;7.10;48.60;;;;;;5049617;28;20037;-80
2022/03/12 05:10:49;;;;;;;11.20;6.20;;;7.10;48.70;;;;;;5050066;28;20040;-80
2022/03/12 05:13:19;;;;;;;12.70;6.25;;;7.10;48.70;;;;;;5032727;28;20052;-80
2022/03/12 05:15:45;;;;;;;11.60;6.30;;;7.00;49.00;;;;;;5049954;28;20052;-80
2022/03/12 05:18:12;;;;;;;13.77;6.07;;;7.00;49.00;;;;;;5049805;28;20041;-80
2022/03/12 05:20:43;;;;;;;10.10;6.00;;;7.00;49.10;;;;;;5049076;28;20044;-80
2022/03/12 05:23:09;;;;;;;14.27;6.45;;;6.90;49.10;;;;;;5049316;28;20556;-79
2022/03/12 05:25:37;;;;;;;12.05;5.97;;;6.90;49.30;;;;;;5048326;28;20033;-80
2022/03/12 05:28:02;;;;;;;14.95;6.80;;;6.80;49.30;;;;;;5049667;28;20041;-80
2022/03/12 05:30:29;;;;;;;12.02;6.43;;;6.80;49.40;;;;;;5049547;28;20177;-80
2022/03/12 05:32:55;;;;;;;10.90;6.10;;;6.80;49.70;;;;;;5032468;28;20075;-80
2022/03/12 05:35:21;;;;;;;12.23;6.35;;;6.80;49.90;;;;;;5049765;28;20033;-80
2022/03/12 05:37:51;;;;;;;13.15;6.35;;;6.70;50.20;;;;;;5049511;28;20041;-79
2022/03/12 05:40:19;;;;;;;12.63;6.50;;;6.70;50.50;;;;;;5049437;28;20037;-79
2022/03/12 05:42:47;;;;;;;12.40;6.70;;;6.70;50.50;;;;;;5049111;28;20075;-79
2022/03/12 05:45:14;;;;;;;12.65;6.03;;;6.60;50.60;;;;;;5033142;28;20056;-80
2022/03/12 05:47:41;;;;;;;11.30;5.95;;;6.60;50.90;;;;;;5032882;28;20045;-80
2022/03/12 05:50:10;;;;;;;13.15;6.47;;;6.50;51.00;;;;;;5032191;28;20402;-80
2022/03/12 05:52:37;;;;;;;10.93;5.60;;;6.50;51.50;;;;;;5048189;28;20159;-80
2022/03/12 05:55:05;;;;;;;10.88;5.75;;;6.50;51.50;;;;;;5048238;28;20123;-80
2022/03/12 05:57:32;;;;;;;12.65;5.93;;;6.50;51.80;;;;;;5049758;28;20512;-79
2022/03/12 06:00:01;;;;;;;12.07;6.07;;;6.50;51.70;;;;;;5032684;28;20052;-79
2022/03/12 06:02:29;;;;;;;11.15;5.75;;;6.50;51.80;;;;;;5032315;28;20037;-80
2022/03/12 06:04:55;;;;;;;10.82;5.57;;;6.40;51.80;;;;;;5035308;28;20420;-79
2022/03/12 06:07:24;;;;;;;13.43;6.38;;;6.50;51.70;;;;;;5052681;28;20048;-80
2022/03/12 06:09:50;;;;;;;12.23;6.20;;;6.50;51.80;;;;;;5052821;28;20049;-80
2022/03/12 06:12:16;;;;;;;10.27;5.88;;;6.50;51.70;;;;;;5036188;28;20124;-80
2022/03/12 06:14:43;;;;;;;11.50;6.35;;;6.50;51.70;;;;;;5052113;28;20428;-79
2022/03/12 06:17:08;;;;;;;12.68;6.45;;;6.50;51.90;;;;;;5052330;28;20033;-80
2022/03/12 06:19:34;;;;;;;12.15;6.00;;;6.50;51.80;;;;;;5052344;28;20047;-80
2022/03/12 06:22:00;;;;;;;12.18;6.20;;;6.50;51.80;;;;;;5052617;28;20037;-80
2022/03/12 06:24:26;;;;;;;11.88;6.18;;;6.50;51.90;;;;;;5067851;28;21249;-79
2022/03/12 06:26:51;;;;;;;13.07;6.43;;;6.50;52.10;;;;;;5051352;28;20266;-80
2022/03/12 06:29:17;;;;;;;14.35;6.10;;;6.60;52.00;;;;;;5052044;28;20051;-80
2022/03/12 06:31:43;;;;;;;13.73;6.40;;;6.60;52.20;;;;;;5034991;28;20079;-79
2022/03/12 06:34:12;;;;;;;15.23;6.65;;;6.60;52.20;;;;;;5051804;28;20048;-79
2022/03/12 06:36:39;;;;;;;12.07;5.78;;;6.60;52.30;;;;;;5035221;28;20395;-79
2022/03/12 06:39:06;;;;;;;11.63;6.03;;;6.60;52.10;;;;;;5051848;28;20045;-79
2022/03/12 06:41:35;;;;;;;12.15;6.00;;;6.70;51.90;;;;;;5051524;28;20033;-79
2022/03/12 06:44:02;;;;;;;13.75;6.15;;;6.70;51.90;;;;;;5051530;28;20108;-80
2022/03/12 06:46:29;;;;;;;10.98;6.55;;;6.70;52.00;;;;;;5035114;28;20120;-80
2022/03/12 06:48:55;;;;;;;13.40;6.38;;;6.70;52.00;;;;;;5034949;28;20041;-80
2022/03/12 06:51:20;;;;;;;11.45;6.13;;;6.70;52.20;;;;;;5051698;28;20051;-79
2022/03/12 06:53:46;;;;;;;12.68;6.57;;;6.80;52.30;;;;;;5033873;28;20119;-79
2022/03/12 06:56:12;;;;;;;14.77;6.63;;;6.80;52.30;;;;;;5051360;28;20052;-79
2022/03/12 06:58:38;;;;;;;11.55;6.07;;;6.80;52.50;;;;;;5051670;28;20044;-79
2022/03/12 07:01:04;;;;;;;12.18;5.93;;;6.80;52.30;;;;;;5051480;28;20066;-79
2022/03/12 07:03:29;;;;;;;12.40;6.20;;;6.90;52.60;;;;;;5050917;28;20115;-79
2022/03/12 07:05:55;;;;;;;13.25;6.60;;;6.90;52.60;;;;;;5051443;28;20048;-79
2022/03/12 07:08:23;;;;;;;13.70;6.10;;;6.90;52.80;;;;;;5050978;28;20048;-79
2022/03/12 07:10:49;;;;;;;15.18;6.68;;;7.00;52.80;;;;;;5050673;28;20628;-79
2022/03/12 07:13:16;;;;;;;12.55;6.53;;;7.00;52.80;;;;;;5051109;28;20045;-79
2022/03/12 07:15:42;;;;;;;13.90;6.72;;;7.00;53.20;;;;;;5033918;28;20048;-79
2022/03/12 07:18:08;;;;;;;13.60;6.57;;;7.00;53.10;;;;;;5051332;28;20447;-79
2022/03/12 07:20:34;;;;;;;12.07;6.13;;;7.00;53.30;;;;;;5051279;28;20049;-79
2022/03/12 07:23:00;;;;;;;12.65;6.82;;;7.10;53.20;;;;;;5034062;28;20170;-79
2022/03/12 07:25:27;;;;;;;11.68;6.50;;;7.10;53.10;;;;;;5034328;28;20044;-79
2022/03/12 07:27:54;;;;;;;12.48;6.07;;;7.10;53.10;;;;;;5050771;28;20045;-79
2022/03/12 07:30:21;;;;;;;13.05;6.30;;;7.20;53.20;;;;;;5051391;28;20040;-79
2022/03/12 07:32:48;;;;;;;13.02;6.32;;;7.20;53.20;;;;;;5050833;28;20048;-79
2022/03/12 07:35:17;;;;;;;12.77;6.40;;;7.20;53.30;;;;;;5051023;28;20076;-79
2022/03/12 07:37:45;;;;;;;12.02;6.68;;;7.30;53.50;;;;;;5050713;28;20049;-79
2022/03/12 07:40:13;;;;;;;10.73;6.18;;;7.30;53.30;;;;;;5050310;28;20049;-79
2022/03/12 07:42:40;;;;;;;13.32;6.53;;;7.40;53.00;;;;;;5050350;28;20033;-79
2022/03/12 07:45:08;;;;;;;13.45;6.43;;;7.50;53.10;;;;;;5050924;28;20045;-79
2022/03/12 07:47:34;;;;;;;13.30;6.85;;;7.60;52.90;;;;;;5050464;28;20558;-79
2022/03/12 07:50:00;;;;;;;13.38;6.25;;;7.70;53.20;;;;;;5050598;28;20037;-80
2022/03/12 07:52:26;;;;;;;13.27;7.07;;;7.80;52.90;;;;;;5050164;28;20064;-79
2022/03/12 07:54:51;;;;;;;11.48;6.72;;;7.90;52.90;;;;;;5049386;28;20074;-80
2022/03/12 07:57:17;;;;;;;12.95;7.05;;;8.00;52.50;;;;;;5050278;28;20646;-79
2022/03/12 07:59:44;;;;;;;13.20;6.88;;;8.10;52.40;;;;;;5049782;28;20441;-79
2022/03/12 08:02:10;;;;;;;13.32;7.32;;;8.20;53.10;;;;;;5050202;28;20052;-79
2022/03/12 08:04:36;;;;;;;14.15;7.43;;;8.30;52.20;;;;;;5050257;28;20041;-80
2022/03/12 08:07:04;;;;;;;12.38;7.28;;;8.40;52.60;;;;;;5032748;28;20049;-80
2022/03/12 08:09:31;;;;;;;11.35;6.60;;;8.50;52.50;;;;;;5049526;28;20037;-80
2022/03/12 08:11:57;;;;;;;16.20;7.40;;;8.60;52.00;;;;;;5048264;28;20044;-80
2022/03/12 08:14:23;;;;;;;11.60;7.38;;;8.60;51.80;;;;;;5049766;28;20056;-80
2022/03/12 08:16:51;;;;;;;13.15;6.95;;;8.70;51.80;;;;;;5050224;28;20108;-80
2022/03/12 08:19:17;;;;;;;13.77;6.95;;;8.70;51.50;;;;;;5034113;28;20040;-79
2022/03/12 08:21:43;;;;;;;11.90;6.78;;;8.80;51.70;;;;;;5049931;28;20047;-80
2022/03/12 08:24:12;;;;;;;13.57;7.20;;;8.90;51.70;;;;;;5050675;28;20041;-80
2022/03/12 08:26:41;;;;;;;12.68;6.85;;;8.90;51.60;;;;;;5050150;28;20045;-80
2022/03/12 08:29:11;;;;;;;12.13;6.85;;;9.00;51.70;;;;;;5050114;28;20405;-80
2022/03/12 08:31:39;;;;;;;13.30;7.15;;;9.10;51.80;;;;;;5050145;28;20048;-80
2022/03/12 08:34:05;;;;;;;18.00;8.25;;;9.20;51.90;;;;;;5049893;28;20051;-80
2022/03/12 08:36:31;;;;;;;12.95;7.72;;;9.30;52.10;;;;;;5033504;28;20498;-80
2022/03/12 08:38:57;;;;;;;13.43;7.13;;;9.40;51.90;;;;;;5032812;28;20119;-80
2022/03/12 08:41:22;;;;;;;13.63;7.35;;;9.50;51.80;;;;;;5049898;28;20128;-80
2022/03/12 08:43:49;;;;;;;12.27;7.30;;;9.60;51.80;;;;;;5033370;28;20076;-80
2022/03/12 08:46:15;;;;;;;13.60;7.82;;;9.70;51.80;;;;;;5033037;28;20037;-80
2022/03/12 08:48:41;;;;;;;13.88;7.18;;;9.80;52.20;;;;;;5050205;28;20620;-80
2022/03/12 08:51:07;;;;;;;11.68;7.43;;;9.90;52.10;;;;;;5049716;28;20552;-80
2022/03/12 08:53:33;;;;;;;14.20;7.97;;;10.00;52.30;;;;;;5049557;28;20136;-80
2022/03/12 08:56:00;;;;;;;12.88;8.18;;;10.10;52.60;;;;;;5070154;28;20115;-79
2022/03/12 08:58:26;;;;;;;13.25;8.00;;;10.20;52.40;;;;;;5069788;28;20036;-80
2022/03/12 09:00:53;;;;;;;11.82;7.60;;;10.30;52.50;;;;;;5069949;28;20036;-80
2022/03/12 09:03:20;;;;;;;13.07;7.20;;;10.40;52.30;;;;;;5064621;28;20044;-80
2022/03/12 09:05:47;;;;;;;12.85;8.10;;;10.50;52.50;;;;;;5049665;28;20379;-80
2022/03/12 09:08:13;;;;;;;13.68;8.10;;;10.60;52.80;;;;;;5046775;28;20033;-78
2022/03/12 09:10:38;;;;;;;13.65;8.18;;;10.70;52.90;;;;;;5043203;28;20044;-79
2022/03/12 09:13:06;;;;;;;13.93;8.07;;;10.80;52.80;;;;;;5049432;28;20688;-80
2022/03/12 09:15:32;;;;;;;13.40;8.00;;;10.90;52.90;;;;;;5050291;28;20437;-79
2022/03/12 09:17:58;;;;;;;12.93;8.50;;;11.10;53.40;;;;;;5050027;28;20505;-80
2022/03/12 09:20:23;;;;;;;12.43;8.30;;;11.20;53.20;;;;;;5049755;28;20049;-80
2022/03/12 09:22:49;;;;;;;14.15;7.88;;;11.30;53.70;;;;;;5032977;28;20041;-80
2022/03/12 09:25:15;;;;;;;13.90;8.32;;;11.40;53.90;;;;;;5049907;28;20079;-80
2022/03/12 09:27:43;;;;;;;14.05;8.70;;;11.50;54.20;;;;;;5049646;28;20080;-80
2022/03/12 09:30:10;;;;;;;13.00;8.23;;;11.60;54.00;;;;;;5049667;28;20052;-80
2022/03/12 09:32:36;;;;;;;12.95;8.65;;;11.80;54.00;;;;;;5032774;28;20048;-80
2022/03/12 09:35:02;;;;;;;13.68;8.90;;;11.80;54.10;;;;;;5049567;28;20045;-80
2022/03/12 09:37:28;;;;;;;14.38;8.48;;;11.90;54.80;;;;;;5049256;28;20061;-80
2022/03/12 09:39:53;;;;;;;12.65;8.15;;;12.00;54.60;;;;;;5052315;28;20068;-80
2022/03/12 09:42:19;;;;;;;12.52;8.40;;;12.10;54.60;;;;;;5052811;28;20041;-80
2022/03/12 09:44:45;;;;;;;12.88;8.88;;;12.20;55.00;;;;;;5052658;28;20052;-80
2022/03/12 09:47:10;;;;;;;12.13;8.15;;;12.30;55.30;;;;;;5052403;28;20057;-80
2022/03/12 09:49:36;;;;;;;13.52;8.23;;;12.40;55.40;;;;;;5052971;28;20041;-80
2022/03/12 09:52:03;;;;;;;15.55;9.25;;;12.60;56.70;;;;;;5036672;28;20438;-80
2022/03/12 09:54:30;;;;;;;15.40;8.88;;;12.70;56.60;;;;;;5051149;28;20055;-80
2022/03/12 09:56:56;;;;;;;14.05;9.15;;;12.70;56.30;;;;;;5036801;28;20072;-80
2022/03/12 09:59:21;;;;;;;14.05;8.77;;;12.80;57.30;;;;;;5053284;28;20041;-80
2022/03/12 10:01:47;;;;;;;14.30;8.32;;;12.90;57.20;;;;;;5052587;28;20048;-80
2022/03/12 10:04:13;;;;;;;12.93;9.10;;;13.00;57.50;;;;;;5036322;28;20045;-80
2022/03/12 10:06:40;;;;;;;15.30;8.82;;;13.10;58.30;;;;;;5052663;28;20129;-80
2022/03/12 10:09:06;;;;;;;12.98;8.48;;;13.10;58.00;;;;;;5052991;28;20041;-80
2022/03/12 10:11:33;;;;;;;13.43;8.68;;;13.10;59.10;;;;;;5052692;28;20128;-80
2022/03/12 10:13:59;;;;;;;13.25;8.57;;;13.10;59.50;;;;;;5052867;28;20472;-80
2022/03/12 10:16:25;;;;;;;13.85;8.73;;;13.20;59.50;;;;;;5052234;28;20127;-80
2022/03/12 10:18:51;;;;;;;14.27;8.52;;;13.20;59.50;;;;;;5052470;28;20073;-80
2022/03/12 10:21:17;;;;;;;12.88;8.15;;;13.30;59.80;;;;;;5052455;28;20072;-80
2022/03/12 10:23:43;;;;;;;12.18;8.32;;;13.40;60.30;;;;;;5052435;28;20088;-80
2022/03/12 10:26:09;;;;;;;13.73;9.05;;;13.50;60.60;;;;;;5052645;28;20041;-80
2022/03/12 10:28:36;;;;;;;12.50;8.88;;;13.60;60.80;;;;;;5052372;28;20059;-80
2022/03/12 10:31:07;;;;;;;12.95;8.80;;;13.60;60.90;;;;;;5052579;28;20079;-80
2022/03/12 10:33:33;;;;;;;14.57;9.38;;;13.60;61.40;;;;;;5052306;28;20049;-80
2022/03/12 10:36:13;;;;;;;17.17;9.38;;;13.70;61.70;;;;;;5035602;28;20032;-80
2022/03/12 10:38:42;;;;;;;13.25;9.05;;;13.70;61.60;;;;;;5036216;28;20036;-80
2022/03/12 10:41:09;;;;;;;13.77;9.82;;;13.80;62.10;;;;;;5052154;28;20067;-80
2022/03/12 10:43:54;;;;;;;12.55;8.45;;;13.80;63.10;;;;;;5052093;28;20056;-80
2022/03/12 10:46:25;;;;;;;13.90;9.60;;;13.80;63.10;;;;;;5036044;28;20041;-80
2022/03/12 10:48:56;;;;;;;12.30;8.82;;;13.80;63.60;;;;;;5035415;28;20059;-80
2022/03/12 10:51:26;;;;;;;15.40;9.30;;;13.70;64.10;;;;;;5052287;28;20402;-80
2022/03/12 10:54:05;;;;;;;14.40;8.80;;;13.70;65.10;;;;;;5038913;28;20051;-80
2022/03/12 10:56:43;;;;;;;13.55;9.40;;;13.80;65.20;;;;;;5055445;28;20041;-80
2022/03/12 10:59:19;;;;;;;12.38;9.30;;;13.80;66.20;;;;;;5071912;28;20076;-80
2022/03/12 11:01:53;;;;;;;12.50;8.88;;;13.90;66.20;;;;;;5071587;28;20040;-80
2022/03/12 11:04:23;;;;;;;12.80;8.73;;;13.90;67.80;;;;;;5070588;28;20102;-80
2022/03/12 11:06:51;;;;;;;12.80;8.52;;;13.90;68.40;;;;;;5055173;28;20070;-80
2022/03/12 11:09:30;;;;;;;15.05;9.70;;;13.80;69.80;;;;;;5071525;28;20044;-80
2022/03/12 11:11:59;;;;;;;14.15;8.82;;;13.80;71.30;;;;;;5055123;28;20071;-80
2022/03/12 11:14:25;;;;;;;14.43;9.13;;;13.80;71.60;;;;;;5055019;28;20040;-80
2022/03/12 11:16:54;;;;;;;11.75;8.70;;;13.90;71.20;;;;;;5071622;28;20375;-80
2022/03/12 11:19:39;;;;;;;12.43;8.50;;;14.00;71.40;;;;;;5072097;28;20045;-80
2022/03/12 11:22:12;;;;;;;12.65;7.82;;;14.00;72.00;;;;;;5071132;28;20066;-80
2022/03/12 11:24:47;;;;;;;12.82;8.00;;;14.10;73.60;;;;;;5071886;28;20052;-81
2022/03/12 11:27:27;;;;;;;12.48;8.30;;;14.20;73.30;;;;;;5071268;28;20046;-80
2022/03/12 11:30:01;;;;;;;11.88;8.45;;;14.30;72.90;;;;;;5071339;28;20093;-80
2022/03/12 11:32:30;;;;;;;11.85;7.85;;;14.30;73.20;;;;;;5054297;28;20036;-81
2022/03/12 11:35:04;;;;;;;13.70;8.35;;;14.40;73.40;;;;;;5071406;28;20076;-80
2022/03/12 11:37:30;;;;;;;13.60;8.70;;;14.50;73.70;;;;;;5054501;28;20036;-80
2022/03/12 11:39:59;;;;;;;12.05;8.50;;;14.60;74.30;;;;;;5071339;28;20083;-81
2022/03/12 11:42:30;;;;;;;13.15;8.18;;;14.60;72.60;;;;;;5070620;28;20041;-80
2022/03/12 11:44:59;;;;;;;13.73;9.07;;;14.60;72.80;;;;;;5054792;28;20036;-80
2022/03/12 11:47:30;;;;;;;12.35;8.32;;;14.50;72.70;;;;;;5071201;28;20048;-81
2022/03/12 11:49:57;;;;;;;13.98;9.13;;;14.50;73.10;;;;;;5070856;28;20413;-80
2022/03/12 11:52:23;;;;;;;13.32;8.65;;;14.60;73.50;;;;;;5069960;28;20051;-80
2022/03/12 11:54:54;;;;;;;12.73;8.90;;;14.70;72.80;;;;;;5049317;28;20066;-80
2022/03/12 11:57:28;;;;;;;11.55;8.02;;;14.80;73.30;;;;;;5051057;28;20029;-80
2022/03/12 11:59:55;;;;;;;12.75;8.32;;;14.90;73.00;;;;;;5050911;28;20060;-81
2022/03/12 12:02:23;;;;;;;13.60;9.35;;;14.80;74.00;;;;;;5049827;28;20128;-81
2022/03/12 12:04:52;;;;;;;13.00;8.30;;;14.80;74.40;;;;;;5051062;28;20041;-81
2022/03/12 12:07:18;;;;;;;14.13;8.35;;;14.90;74.60;;;;;;5050736;28;20103;-81
2022/03/12 12:09:44;;;;;;;10.27;6.93;;;15.10;73.80;;;;;;5049161;28;20079;-80
2022/03/12 12:12:13;;;;;;;11.80;7.82;;;15.10;73.90;;;;;;5033137;28;20072;-80
2022/03/12 12:14:39;;;;;;;11.75;7.50;;;15.20;73.50;;;;;;5050115;28;20056;-81
2022/03/12 12:17:06;;;;;;;12.25;7.53;;;15.20;73.00;;;;;;5050013;28;20506;-81
2022/03/12 12:19:32;;;;;;;13.38;7.47;;;15.20;72.00;;;;;;5033280;28;20151;-80
2022/03/12 12:22:00;;;;;;;13.05;7.38;;;15.30;70.40;;;;;;5049774;28;20041;-80
2022/03/12 12:24:31;;;;;;;13.25;7.65;;;15.30;70.00;;;;;;5050141;28;20111;-80
2022/03/12 12:27:06;;;;;;;11.20;7.20;;;15.40;71.70;;;;;;5050124;28;20067;-80
2022/03/12 12:29:41;;;;;;;12.85;6.88;;;15.50;72.90;;;;;;5049665;28;20045;-80
2022/03/12 12:32:07;;;;;;;12.25;7.32;;;15.60;70.90;;;;;;5049583;28;20041;-80
2022/03/12 12:34:35;;;;;;;11.98;7.65;;;15.60;70.50;;;;;;5033310;28;20045;-81
2022/03/12 12:37:03;;;;;;;11.32;7.85;;;15.60;70.30;;;;;;5049851;28;20650;-81
2022/03/12 12:39:29;;;;;;;11.60;6.75;;;15.60;70.60;;;;;;5050034;28;20467;-81
2022/03/12 12:42:04;;;;;;;12.38;6.95;;;15.80;70.20;;;;;;5049654;28;20099;-81
2022/03/12 12:44:39;;;;;;;11.70;6.38;;;15.90;67.90;;;;;;5050361;28;20399;-81
2022/03/12 12:47:07;;;;;;;12.38;7.10;;;15.90;66.20;;;;;;5050011;28;20052;-81